Fredericksburg, Texas
Current Conditions -  °F | °C
As of 11:15 AM on Thursday 27 Nov 2014 (Local Time) from KT82 Reporting Station
Clear Clear  
Wind Chill: 54°   Ceiling: Unl
Heat Index: 54°   Visibility: 10mi
Dew Point: 28°   Wind: 7mph
Humidity: 37%   Direction: 90°E
Pressure: 30.51"   Gusts: NA
Location:  30.27°N, 98.87°W
Report Text: KT82 271715Z AUTO 09006KT 10SM CLR 12/M02 A3051 RMK AO2 T01201025
Loading
Personal Weather Stations






























Interactive Weather Map New forecast layout! Learn more

10-Day Weather Forecast

Advertisements
Track Severe Weather on mobile